sensor_id;sensor_type;location;lat;lon;timestamp;pressure;altitude;pressure_sealevel;temperature;humidity
13209;BME280;6669;42.678;23.332;2022-10-28T00:01:17;95764.13;;;12.13;100.00
13209;BME280;6669;42.678;23.332;2022-10-28T00:03:47;95761.16;;;12.08;100.00
13209;BME280;6669;42.678;23.332;2022-10-28T00:06:16;95763.41;;;12.03;100.00
13209;BME280;6669;42.678;23.332;2022-10-28T00:08:46;95767.78;;;12.02;100.00
13209;BME280;6669;42.678;23.332;2022-10-28T00:11:16;95766.13;;;12.01;100.00
13209;BME280;6669;42.678;23.332;2022-10-28T00:13:45;95756.31;;;11.95;100.00
13209;BME280;6669;42.678;23.332;2022-10-28T00:16:16;95757.22;;;11.86;100.00
13209;BME280;6669;42.678;23.332;2022-10-28T00:18:45;95751.63;;;11.81;100.00
13209;BME280;6669;42.678;23.332;2022-10-28T00:21:15;95752.91;;;11.76;100.00
13209;BME280;6669;42.678;23.332;2022-10-28T00:23:44;95758.00;;;11.60;100.00
13209;BME280;6669;42.678;23.332;2022-10-28T00:26:14;95749.97;;;11.53;100.00
13209;BME280;6669;42.678;23.332;2022-10-28T00:28:44;95746.69;;;11.51;100.00
13209;BME280;6669;42.678;23.332;2022-10-28T00:31:13;95749.22;;;11.43;100.00
13209;BME280;6669;42.678;23.332;2022-10-28T00:33:44;95752.44;;;11.37;100.00
13209;BME280;6669;42.678;23.332;2022-10-28T00:36:14;95745.88;;;11.33;100.00
13209;BME280;6669;42.678;23.332;2022-10-28T00:38:44;95745.22;;;11.31;100.00
13209;BME280;6669;42.678;23.332;2022-10-28T00:41:15;95737.47;;;11.21;100.00
13209;BME280;6669;42.678;23.332;2022-10-28T00:43:46;95736.94;;;11.17;100.00
13209;BME280;6669;42.678;23.332;2022-10-28T00:46:23;95739.47;;;11.09;100.00
13209;BME280;6669;42.678;23.332;2022-10-28T00:48:57;95746.69;;;10.97;100.00
13209;BME280;6669;42.678;23.332;2022-10-28T00:51:28;95739.69;;;10.98;100.00
13209;BME280;6669;42.678;23.332;2022-10-28T00:53:58;95743.03;;;10.90;100.00
13209;BME280;6669;42.678;23.332;2022-10-28T00:56:32;95741.22;;;10.90;100.00
13209;BME280;6669;42.678;23.332;2022-10-28T00:59:03;95746.69;;;10.69;100.00
13209;BME280;6669;42.678;23.332;2022-10-28T01:01:49;95745.84;;;10.69;100.00
13209;BME280;6669;42.678;23.332;2022-10-28T01:04:18;95737.81;;;10.62;100.00
13209;BME280;6669;42.678;23.332;2022-10-28T01:06:47;95740.47;;;10.52;100.00
13209;BME280;6669;42.678;23.332;2022-10-28T01:09:16;95739.63;;;10.61;100.00
13209;BME280;6669;42.678;23.332;2022-10-28T01:11:52;95739.34;;;10.55;100.00
13209;BME280;6669;42.678;23.332;2022-10-28T01:14:31;95732.47;;;10.63;100.00
13209;BME280;6669;42.678;23.332;2022-10-28T01:17:15;95741.38;;;10.61;100.00
13209;BME280;6669;42.678;23.332;2022-10-28T01:22:54;95721.50;;;10.42;100.00
13209;BME280;6669;42.678;23.332;2022-10-28T01:25:52;95726.03;;;10.40;100.00
13209;BME280;6669;42.678;23.332;2022-10-28T01:31:30;95730.56;;;10.38;100.00
13209;BME280;6669;42.678;23.332;2022-10-28T01:34:08;95730.16;;;10.23;100.00
13209;BME280;6669;42.678;23.332;2022-10-28T01:36:41;95731.94;;;10.22;100.00
13209;BME280;6669;42.678;23.332;2022-10-28T01:39:25;95732.09;;;10.21;100.00
13209;BME280;6669;42.678;23.332;2022-10-28T01:41:59;95727.00;;;10.19;100.00
13209;BME280;6669;42.678;23.332;2022-10-28T01:44:36;95735.91;;;10.17;100.00
13209;BME280;6669;42.678;23.332;2022-10-28T01:47:09;95741.00;;;10.08;100.00
13209;BME280;6669;42.678;23.332;2022-10-28T01:49:42;95730.31;;;10.11;100.00
13209;BME280;6669;42.678;23.332;2022-10-28T01:52:17;95735.09;;;10.16;100.00
13209;BME280;6669;42.678;23.332;2022-10-28T01:54:51;95736.19;;;10.23;100.00
13209;BME280;6669;42.678;23.332;2022-10-28T01:57:21;95740.00;;;10.29;100.00
13209;BME280;6669;42.678;23.332;2022-10-28T01:59:51;95744.09;;;10.22;100.00
13209;BME280;6669;42.678;23.332;2022-10-28T02:02:21;95739.84;;;10.30;100.00
13209;BME280;6669;42.678;23.332;2022-10-28T02:04:49;95733.06;;;10.20;100.00
13209;BME280;6669;42.678;23.332;2022-10-28T02:07:17;95739.06;;;10.10;100.00
13209;BME280;6669;42.678;23.332;2022-10-28T02:09:58;95734.88;;;10.09;100.00
13209;BME280;6669;42.678;23.332;2022-10-28T02:12:30;95728.59;;;10.02;100.00
13209;BME280;6669;42.678;23.332;2022-10-28T02:15:13;95736.78;;;9.97;100.00
13209;BME280;6669;42.678;23.332;2022-10-28T02:17:59;95731.75;;;9.86;100.00
13209;BME280;6669;42.678;23.332;2022-10-28T02:20:34;95730.41;;;9.82;100.00
13209;BME280;6669;42.678;23.332;2022-10-28T02:23:15;95731.78;;;9.76;100.00
13209;BME280;6669;42.678;23.332;2022-10-28T02:25:51;95733.59;;;9.66;100.00
13209;BME280;6669;42.678;23.332;2022-10-28T02:28:23;95736.34;;;9.55;100.00
13209;BME280;6669;42.678;23.332;2022-10-28T02:30:58;95732.91;;;9.54;100.00
13209;BME280;6669;42.678;23.332;2022-10-28T02:33:32;95734.94;;;9.51;100.00
13209;BME280;6669;42.678;23.332;2022-10-28T02:36:03;95734.69;;;9.34;100.00
13209;BME280;6669;42.678;23.332;2022-10-28T02:38:35;95732.75;;;9.26;100.00
13209;BME280;6669;42.678;23.332;2022-10-28T02:41:07;95737.16;;;9.26;100.00
13209;BME280;6669;42.678;23.332;2022-10-28T02:43:41;95739.31;;;9.21;100.00
13209;BME280;6669;42.678;23.332;2022-10-28T02:46:11;95736.34;;;9.25;100.00
13209;BME280;6669;42.678;23.332;2022-10-28T02:48:44;95741.09;;;9.10;100.00
13209;BME280;6669;42.678;23.332;2022-10-28T02:51:16;95741.25;;;9.09;100.00
13209;BME280;6669;42.678;23.332;2022-10-28T02:53:53;95740.00;;;9.03;100.00
13209;BME280;6669;42.678;23.332;2022-10-28T02:56:23;95726.34;;;8.91;100.00
13209;BME280;6669;42.678;23.332;2022-10-28T02:58:51;95727.00;;;8.93;100.00
13209;BME280;6669;42.678;23.332;2022-10-28T03:01:19;95734.13;;;8.91;100.00
13209;BME280;6669;42.678;23.332;2022-10-28T03:03:49;95731.66;;;8.90;100.00
13209;BME280;6669;42.678;23.332;2022-10-28T03:06:17;95735.72;;;8.82;100.00
13209;BME280;6669;42.678;23.332;2022-10-28T03:08:45;95735.72;;;8.82;100.00
13209;BME280;6669;42.678;23.332;2022-10-28T03:11:13;95737.91;;;8.77;100.00
13209;BME280;6669;42.678;23.332;2022-10-28T03:13:40;95734.75;;;8.74;100.00
13209;BME280;6669;42.678;23.332;2022-10-28T03:16:08;95727.78;;;8.74;100.00
13209;BME280;6669;42.678;23.332;2022-10-28T03:18:36;95734.34;;;8.69;100.00
13209;BME280;6669;42.678;23.332;2022-10-28T03:21:06;95734.63;;;8.65;100.00
13209;BME280;6669;42.678;23.332;2022-10-28T03:23:34;95731.19;;;8.65;100.00
13209;BME280;6669;42.678;23.332;2022-10-28T03:26:02;95733.09;;;8.63;100.00
13209;BME280;6669;42.678;23.332;2022-10-28T03:28:29;95733.63;;;8.66;100.00
13209;BME280;6669;42.678;23.332;2022-10-28T03:30:57;95731.19;;;8.65;100.00
13209;BME280;6669;42.678;23.332;2022-10-28T03:33:25;95733.22;;;8.61;100.00
13209;BME280;6669;42.678;23.332;2022-10-28T03:35:53;95724.63;;;8.61;100.00
13209;BME280;6669;42.678;23.332;2022-10-28T03:38:22;95729.13;;;8.59;100.00
13209;BME280;6669;42.678;23.332;2022-10-28T03:40:50;95728.69;;;8.54;100.00
13209;BME280;6669;42.678;23.332;2022-10-28T03:43:18;95732.78;;;8.56;100.00
13209;BME280;6669;42.678;23.332;2022-10-28T03:45:46;95735.66;;;8.53;100.00
13209;BME280;6669;42.678;23.332;2022-10-28T03:48:14;95736.47;;;8.54;100.00
13209;BME280;6669;42.678;23.332;2022-10-28T03:50:42;95742.34;;;8.56;100.00
13209;BME280;6669;42.678;23.332;2022-10-28T03:53:10;95744.25;;;8.54;100.00
13209;BME280;6669;42.678;23.332;2022-10-28T03:55:39;95737.13;;;8.46;100.00
13209;BME280;6669;42.678;23.332;2022-10-28T03:58:07;95739.75;;;8.56;100.00
13209;BME280;6669;42.678;23.332;2022-10-28T04:00:35;95737.72;;;8.59;100.00
13209;BME280;6669;42.678;23.332;2022-10-28T04:03:03;95737.16;;;8.56;100.00
13209;BME280;6669;42.678;23.332;2022-10-28T04:05:31;95734.81;;;8.53;100.00
13209;BME280;6669;42.678;23.332;2022-10-28T04:07:59;95748.34;;;8.56;100.00
13209;BME280;6669;42.678;23.332;2022-10-28T04:10:27;95752.16;;;8.52;100.00
13209;BME280;6669;42.678;23.332;2022-10-28T04:12:59;95744.50;;;8.50;100.00
13209;BME280;6669;42.678;23.332;2022-10-28T04:15:28;95734.88;;;8.31;100.00
13209;BME280;6669;42.678;23.332;2022-10-28T04:17:56;95739.50;;;8.28;100.00
13209;BME280;6669;42.678;23.332;2022-10-28T04:20:25;95740.19;;;8.40;100.00
13209;BME280;6669;42.678;23.332;2022-10-28T04:22:53;95740.56;;;8.46;100.00
13209;BME280;6669;42.678;23.332;2022-10-28T04:25:24;95742.06;;;8.49;100.00
13209;BME280;6669;42.678;23.332;2022-10-28T04:27:52;95744.00;;;8.57;100.00
13209;BME280;6669;42.678;23.332;2022-10-28T04:30:23;95748.63;;;8.53;100.00
13209;BME280;6669;42.678;23.332;2022-10-28T04:32:51;95747.41;;;8.57;100.00
13209;BME280;6669;42.678;23.332;2022-10-28T04:35:19;95744.53;;;8.60;100.00
13209;BME280;6669;42.678;23.332;2022-10-28T04:37:46;95744.00;;;8.57;100.00
13209;BME280;6669;42.678;23.332;2022-10-28T04:40:15;95748.66;;;8.63;100.00
13209;BME280;6669;42.678;23.332;2022-10-28T04:42:44;95738.16;;;8.64;100.00
13209;BME280;6669;42.678;23.332;2022-10-28T04:45:12;95732.78;;;8.56;100.00
13209;BME280;6669;42.678;23.332;2022-10-28T04:47:42;95736.66;;;8.62;100.00
13209;BME280;6669;42.678;23.332;2022-10-28T04:50:10;95736.38;;;8.65;100.00
13209;BME280;6669;42.678;23.332;2022-10-28T04:52:38;95737.91;;;8.77;100.00
13209;BME280;6669;42.678;23.332;2022-10-28T04:55:08;95743.09;;;8.77;100.00
13209;BME280;6669;42.678;23.332;2022-10-28T04:57:36;95740.50;;;8.77;100.00
13209;BME280;6669;42.678;23.332;2022-10-28T05:00:05;95746.72;;;8.65;100.00
13209;BME280;6669;42.678;23.332;2022-10-28T05:02:33;95738.66;;;8.58;100.00
13209;BME280;6669;42.678;23.332;2022-10-28T05:05:04;95747.25;;;8.59;100.00
13209;BME280;6669;42.678;23.332;2022-10-28T05:07:32;95732.19;;;8.43;100.00
13209;BME280;6669;42.678;23.332;2022-10-28T05:10:01;95739.56;;;8.47;100.00
13209;BME280;6669;42.678;23.332;2022-10-28T05:12:29;95746.09;;;8.42;100.00
13209;BME280;6669;42.678;23.332;2022-10-28T05:14:57;95732.44;;;8.40;100.00
13209;BME280;6669;42.678;23.332;2022-10-28T05:17:25;95748.09;;;8.59;100.00
13209;BME280;6669;42.678;23.332;2022-10-28T05:19:53;95749.19;;;8.66;100.00
13209;BME280;6669;42.678;23.332;2022-10-28T05:22:23;95755.50;;;8.74;100.00
13209;BME280;6669;42.678;23.332;2022-10-28T05:24:51;95757.81;;;8.77;100.00
13209;BME280;6669;42.678;23.332;2022-10-28T05:27:19;95764.34;;;8.71;100.00
13209;BME280;6669;42.678;23.332;2022-10-28T05:29:47;95761.63;;;8.63;100.00
13209;BME280;6669;42.678;23.332;2022-10-28T05:32:15;95761.28;;;8.56;100.00
13209;BME280;6669;42.678;23.332;2022-10-28T05:34:43;95762.19;;;8.45;100.00
13209;BME280;6669;42.678;23.332;2022-10-28T05:37:11;95771.00;;;8.33;100.00
13209;BME280;6669;42.678;23.332;2022-10-28T05:39:41;95770.69;;;8.26;100.00
13209;BME280;6669;42.678;23.332;2022-10-28T05:42:09;95758.41;;;8.18;100.00
13209;BME280;6669;42.678;23.332;2022-10-28T05:44:37;95770.00;;;8.24;100.00
13209;BME280;6669;42.678;23.332;2022-10-28T05:47:05;95772.03;;;8.21;100.00
13209;BME280;6669;42.678;23.332;2022-10-28T05:49:33;95763.97;;;8.14;100.00
13209;BME280;6669;42.678;23.332;2022-10-28T05:52:02;95781.56;;;8.20;100.00
13209;BME280;6669;42.678;23.332;2022-10-28T05:54:31;95770.78;;;8.15;100.00
13209;BME280;6669;42.678;23.332;2022-10-28T05:57:00;95785.09;;;8.19;100.00
13209;BME280;6669;42.678;23.332;2022-10-28T05:59:28;95780.22;;;8.26;100.00
13209;BME280;6669;42.678;23.332;2022-10-28T06:01:56;95777.53;;;8.27;100.00
13209;BME280;6669;42.678;23.332;2022-10-28T06:04:24;95781.38;;;8.33;100.00
13209;BME280;6669;42.678;23.332;2022-10-28T06:06:53;95788.88;;;8.36;100.00
13209;BME280;6669;42.678;23.332;2022-10-28T06:09:22;95795.63;;;8.48;100.00
13209;BME280;6669;42.678;23.332;2022-10-28T06:11:51;95789.25;;;8.53;100.00
13209;BME280;6669;42.678;23.332;2022-10-28T06:14:21;95801.31;;;8.63;100.00
13209;BME280;6669;42.678;23.332;2022-10-28T06:16:49;95808.13;;;8.64;100.00
13209;BME280;6669;42.678;23.332;2022-10-28T06:19:17;95799.09;;;8.59;100.00
13209;BME280;6669;42.678;23.332;2022-10-28T06:21:45;95811.81;;;8.72;100.00
13209;BME280;6669;42.678;23.332;2022-10-28T06:24:13;95812.53;;;8.74;100.00
13209;BME280;6669;42.678;23.332;2022-10-28T06:26:42;95809.13;;;8.83;100.00
13209;BME280;6669;42.678;23.332;2022-10-28T06:29:10;95811.91;;;8.91;100.00
13209;BME280;6669;42.678;23.332;2022-10-28T06:31:40;95809.31;;;8.91;100.00
13209;BME280;6669;42.678;23.332;2022-10-28T06:34:09;95820.38;;;9.03;100.00
13209;BME280;6669;42.678;23.332;2022-10-28T06:36:37;95822.72;;;9.06;100.00
13209;BME280;6669;42.678;23.332;2022-10-28T06:39:05;95825.19;;;9.18;100.00
13209;BME280;6669;42.678;23.332;2022-10-28T06:41:34;95817.84;;;9.23;100.00
13209;BME280;6669;42.678;23.332;2022-10-28T06:44:02;95825.63;;;9.32;100.00
13209;BME280;6669;42.678;23.332;2022-10-28T06:46:30;95821.69;;;9.38;100.00
13209;BME280;6669;42.678;23.332;2022-10-28T06:48:59;95819.09;;;9.48;100.00
13209;BME280;6669;42.678;23.332;2022-10-28T06:51:29;95825.41;;;9.65;100.00
13209;BME280;6669;42.678;23.332;2022-10-28T06:53:57;95817.06;;;9.71;100.00
13209;BME280;6669;42.678;23.332;2022-10-28T06:56:25;95812.84;;;9.80;100.00
13209;BME280;6669;42.678;23.332;2022-10-28T06:58:54;95807.50;;;9.81;100.00
13209;BME280;6669;42.678;23.332;2022-10-28T07:01:24;95822.66;;;9.96;100.00
13209;BME280;6669;42.678;23.332;2022-10-28T07:03:52;95825.38;;;10.04;100.00
13209;BME280;6669;42.678;23.332;2022-10-28T07:06:22;95824.94;;;10.19;100.00
13209;BME280;6669;42.678;23.332;2022-10-28T07:08:52;95830.13;;;10.28;100.00
13209;BME280;6669;42.678;23.332;2022-10-28T07:11:20;95829.16;;;10.29;100.00
13209;BME280;6669;42.678;23.332;2022-10-28T07:13:48;95831.22;;;10.36;100.00
13209;BME280;6669;42.678;23.332;2022-10-28T07:16:16;95827.66;;;10.46;100.00
13209;BME280;6669;42.678;23.332;2022-10-28T07:18:44;95831.75;;;10.49;100.00
13209;BME280;6669;42.678;23.332;2022-10-28T07:21:12;95823.38;;;10.55;100.00
13209;BME280;6669;42.678;23.332;2022-10-28T07:23:41;95836.06;;;10.68;100.00
13209;BME280;6669;42.678;23.332;2022-10-28T07:26:09;95834.09;;;10.80;100.00
13209;BME280;6669;42.678;23.332;2022-10-28T07:28:37;95839.53;;;10.87;100.00
13209;BME280;6669;42.678;23.332;2022-10-28T07:31:05;95836.38;;;10.93;100.00
13209;BME280;6669;42.678;23.332;2022-10-28T07:33:35;95839.47;;;11.06;100.00
13209;BME280;6669;42.678;23.332;2022-10-28T07:36:03;95831.34;;;11.09;100.00
13209;BME280;6669;42.678;23.332;2022-10-28T07:38:32;95834.72;;;11.20;100.00
13209;BME280;6669;42.678;23.332;2022-10-28T07:41:05;95834.72;;;11.20;100.00
13209;BME280;6669;42.678;23.332;2022-10-28T07:43:35;95834.25;;;11.34;100.00
13209;BME280;6669;42.678;23.332;2022-10-28T07:46:04;95837.88;;;11.41;100.00
13209;BME280;6669;42.678;23.332;2022-10-28T07:48:32;95832.09;;;11.48;100.00
13209;BME280;6669;42.678;23.332;2022-10-28T07:51:02;95839.31;;;11.54;100.00
13209;BME280;6669;42.678;23.332;2022-10-28T07:53:31;95836.44;;;11.57;100.00
13209;BME280;6669;42.678;23.332;2022-10-28T07:56:01;95834.47;;;11.59;100.00
13209;BME280;6669;42.678;23.332;2022-10-28T07:58:31;95828.53;;;11.67;100.00
13209;BME280;6669;42.678;23.332;2022-10-28T08:01:02;95824.22;;;11.75;100.00
13209;BME280;6669;42.678;23.332;2022-10-28T08:03:32;95836.19;;;11.86;100.00
13209;BME280;6669;42.678;23.332;2022-10-28T08:06:07;95831.19;;;11.93;100.00
13209;BME280;6669;42.678;23.332;2022-10-28T08:08:35;95836.13;;;11.96;100.00
13209;BME280;6669;42.678;23.332;2022-10-28T08:11:10;95835.63;;;12.10;100.00
13209;BME280;6669;42.678;23.332;2022-10-28T08:13:39;95840.88;;;12.19;100.00
13209;BME280;6669;42.678;23.332;2022-10-28T08:16:07;95842.94;;;12.33;100.00
13209;BME280;6669;42.678;23.332;2022-10-28T08:18:36;95848.56;;;12.47;100.00
13209;BME280;6669;42.678;23.332;2022-10-28T08:21:05;95843.75;;;12.60;100.00
13209;BME280;6669;42.678;23.332;2022-10-28T08:23:34;95843.44;;;12.63;100.00
13209;BME280;6669;42.678;23.332;2022-10-28T08:26:04;95839.75;;;12.74;100.00
13209;BME280;6669;42.678;23.332;2022-10-28T08:28:32;95837.63;;;12.78;100.00
13209;BME280;6669;42.678;23.332;2022-10-28T08:31:02;95845.41;;;12.96;100.00
13209;BME280;6669;42.678;23.332;2022-10-28T08:33:35;95843.78;;;13.03;100.00
13209;BME280;6669;42.678;23.332;2022-10-28T08:36:04;95853.50;;;13.19;100.00
13209;BME280;6669;42.678;23.332;2022-10-28T08:38:32;95845.38;;;13.30;100.00
13209;BME280;6669;42.678;23.332;2022-10-28T08:41:08;95847.41;;;13.45;100.00
13209;BME280;6669;42.678;23.332;2022-10-28T08:43:52;95846.44;;;13.54;100.00
13209;BME280;6669;42.678;23.332;2022-10-28T08:46:45;95852.69;;;13.69;100.00
13209;BME280;6669;42.678;23.332;2022-10-28T08:49:19;95847.13;;;13.81;100.00
13209;BME280;6669;42.678;23.332;2022-10-28T08:51:52;95838.31;;;13.98;100.00
13209;BME280;6669;42.678;23.332;2022-10-28T08:54:26;95840.75;;;14.00;100.00
13209;BME280;6669;42.678;23.332;2022-10-28T08:56:58;95834.25;;;14.12;100.00
13209;BME280;6669;42.678;23.332;2022-10-28T08:59:30;95838.97;;;14.25;100.00
13209;BME280;6669;42.678;23.332;2022-10-28T09:02:10;95838.16;;;14.41;100.00
13209;BME280;6669;42.678;23.332;2022-10-28T09:04:42;95836.00;;;14.53;100.00
13209;BME280;6669;42.678;23.332;2022-10-28T09:07:15;95828.63;;;14.65;100.00
13209;BME280;6669;42.678;23.332;2022-10-28T09:09:45;95829.72;;;14.87;100.00
13209;BME280;6669;42.678;23.332;2022-10-28T09:12:21;95824.69;;;15.17;100.00
13209;BME280;6669;42.678;23.332;2022-10-28T09:15:04;95825.16;;;15.52;100.00
13209;BME280;6669;42.678;23.332;2022-10-28T09:17:49;95820.91;;;15.82;100.00
13209;BME280;6669;42.678;23.332;2022-10-28T09:20:25;95816.19;;;16.69;100.00
13209;BME280;6669;42.678;23.332;2022-10-28T09:22:58;95821.75;;;17.41;100.00
13209;BME280;6669;42.678;23.332;2022-10-28T09:25:31;95816.72;;;17.97;100.00
13209;BME280;6669;42.678;23.332;2022-10-28T09:28:13;95816.47;;;18.42;100.00
13209;BME280;6669;42.678;23.332;2022-10-28T09:30:52;95801.91;;;18.82;100.00
13209;BME280;6669;42.678;23.332;2022-10-28T09:33:40;95800.50;;;19.21;98.68
13209;BME280;6669;42.678;23.332;2022-10-28T09:36:12;95803.59;;;19.38;95.32
13209;BME280;6669;42.678;23.332;2022-10-28T09:38:42;95793.97;;;19.72;94.32
13209;BME280;6669;42.678;23.332;2022-10-28T09:41:14;95792.41;;;20.11;91.52
13209;BME280;6669;42.678;23.332;2022-10-28T09:43:46;95790.56;;;20.32;89.52
13209;BME280;6669;42.678;23.332;2022-10-28T09:46:16;95787.47;;;20.62;86.72
13209;BME280;6669;42.678;23.332;2022-10-28T09:48:47;95768.81;;;20.43;85.21
13209;BME280;6669;42.678;23.332;2022-10-28T09:51:25;95778.56;;;20.49;85.54
13209;BME280;6669;42.678;23.332;2022-10-28T09:53:56;95770.81;;;20.74;84.12
13209;BME280;6669;42.678;23.332;2022-10-28T09:56:27;95767.31;;;20.87;80.93
13209;BME280;6669;42.678;23.332;2022-10-28T09:58:57;95756.59;;;21.21;78.80
13209;BME280;6669;42.678;23.332;2022-10-28T10:01:28;95757.75;;;21.32;78.63
13209;BME280;6669;42.678;23.332;2022-10-28T10:04:00;95755.63;;;21.15;78.83
13209;BME280;6669;42.678;23.332;2022-10-28T10:06:33;95757.91;;;21.44;76.96
13209;BME280;6669;42.678;23.332;2022-10-28T10:09:03;95759.03;;;21.68;75.97
13209;BME280;6669;42.678;23.332;2022-10-28T10:11:35;95756.56;;;21.98;74.09
13209;BME280;6669;42.678;23.332;2022-10-28T10:14:07;95755.56;;;22.18;73.62
13209;BME280;6669;42.678;23.332;2022-10-28T10:16:39;95749.25;;;22.19;73.00
13209;BME280;6669;42.678;23.332;2022-10-28T10:19:10;95745.59;;;22.64;69.43
13209;BME280;6669;42.678;23.332;2022-10-28T10:21:40;95742.56;;;22.97;68.59
13209;BME280;6669;42.678;23.332;2022-10-28T10:24:28;95736.16;;;23.05;66.81
13209;BME280;6669;42.678;23.332;2022-10-28T10:26:59;95735.56;;;23.22;66.43
13209;BME280;6669;42.678;23.332;2022-10-28T10:29:29;95732.00;;;23.28;66.32
13209;BME280;6669;42.678;23.332;2022-10-28T10:32:22;95726.53;;;23.41;64.42
13209;BME280;6669;42.678;23.332;2022-10-28T10:34:58;95722.56;;;23.74;64.58
13209;BME280;6669;42.678;23.332;2022-10-28T10:37:30;95725.47;;;23.84;62.61
13209;BME280;6669;42.678;23.332;2022-10-28T10:40:04;95719.31;;;24.14;60.54
13209;BME280;6669;42.678;23.332;2022-10-28T10:42:34;95717.44;;;24.15;61.03
13209;BME280;6669;42.678;23.332;2022-10-28T10:45:23;95721.03;;;24.44;58.14
13209;BME280;6669;42.678;23.332;2022-10-28T10:48:08;95716.28;;;24.70;57.12
13209;BME280;6669;42.678;23.332;2022-10-28T10:50:44;95717.50;;;24.91;55.53
13209;BME280;6669;42.678;23.332;2022-10-28T10:53:22;95708.28;;;24.58;56.19
13209;BME280;6669;42.678;23.332;2022-10-28T10:55:54;95710.34;;;24.80;56.54
13209;BME280;6669;42.678;23.332;2022-10-28T10:58:24;95704.66;;;25.29;56.75
13209;BME280;6669;42.678;23.332;2022-10-28T11:00:55;95710.66;;;25.36;55.54
13209;BME280;6669;42.678;23.332;2022-10-28T11:03:28;95695.81;;;25.11;54.85
13209;BME280;6669;42.678;23.332;2022-10-28T11:06:00;95688.16;;;25.15;54.80
13209;BME280;6669;42.678;23.332;2022-10-28T11:08:53;95694.66;;;24.78;52.64
13209;BME280;6669;42.678;23.332;2022-10-28T11:11:31;95686.22;;;25.10;51.96
13209;BME280;6669;42.678;23.332;2022-10-28T11:14:05;95691.06;;;25.42;53.52
13209;BME280;6669;42.678;23.332;2022-10-28T11:16:46;95682.78;;;25.27;52.18
13209;BME280;6669;42.678;23.332;2022-10-28T11:19:19;95687.38;;;25.60;50.05
13209;BME280;6669;42.678;23.332;2022-10-28T11:21:59;95680.19;;;25.78;49.86
13209;BME280;6669;42.678;23.332;2022-10-28T11:24:59;95683.66;;;25.33;49.37
13209;BME280;6669;42.678;23.332;2022-10-28T11:27:41;95676.00;;;25.82;49.82
13209;BME280;6669;42.678;23.332;2022-10-28T11:30:24;95673.84;;;25.79;49.61
13209;BME280;6669;42.678;23.332;2022-10-28T11:33:02;95675.44;;;25.46;50.25
13209;BME280;6669;42.678;23.332;2022-10-28T11:36:00;95671.41;;;25.77;50.02
13209;BME280;6669;42.678;23.332;2022-10-28T11:38:45;95659.78;;;25.67;49.20
13209;BME280;6669;42.678;23.332;2022-10-28T11:41:27;95664.59;;;25.36;49.36
13209;BME280;6669;42.678;23.332;2022-10-28T11:43:58;95656.72;;;25.92;49.17
13209;BME280;6669;42.678;23.332;2022-10-28T11:46:44;95666.31;;;26.27;47.07
13209;BME280;6669;42.678;23.332;2022-10-28T11:49:55;95657.44;;;25.87;47.26
13209;BME280;6669;42.678;23.332;2022-10-28T11:52:40;95654.63;;;26.11;46.00
13209;BME280;6669;42.678;23.332;2022-10-28T11:55:21;95644.53;;;26.35;46.43
13209;BME280;6669;42.678;23.332;2022-10-28T11:58:06;95658.41;;;26.15;47.29
13209;BME280;6669;42.678;23.332;2022-10-28T12:00:44;95652.88;;;26.39;47.89
13209;BME280;6669;42.678;23.332;2022-10-28T12:03:37;95650.47;;;26.82;46.87
13209;BME280;6669;42.678;23.332;2022-10-28T12:06:15;95643.69;;;26.96;47.14
13209;BME280;6669;42.678;23.332;2022-10-28T12:09:02;95647.34;;;26.68;47.24
13209;BME280;6669;42.678;23.332;2022-10-28T12:12:05;95641.41;;;26.83;46.71
13209;BME280;6669;42.678;23.332;2022-10-28T12:14:43;95629.06;;;26.76;46.21
13209;BME280;6669;42.678;23.332;2022-10-28T12:17:16;95640.59;;;27.09;45.66
13209;BME280;6669;42.678;23.332;2022-10-28T12:19:52;95631.28;;;27.12;46.59
13209;BME280;6669;42.678;23.332;2022-10-28T12:22:25;95638.06;;;26.70;46.86
13209;BME280;6669;42.678;23.332;2022-10-28T12:24:57;95640.88;;;26.81;46.95
13209;BME280;6669;42.678;23.332;2022-10-28T12:27:33;95631.44;;;27.00;46.80
13209;BME280;6669;42.678;23.332;2022-10-28T12:30:08;95628.63;;;26.63;46.56
13209;BME280;6669;42.678;23.332;2022-10-28T12:32:43;95635.69;;;26.74;46.95
13209;BME280;6669;42.678;23.332;2022-10-28T12:35:16;95629.59;;;27.01;47.48
13209;BME280;6669;42.678;23.332;2022-10-28T12:37:50;95632.03;;;27.02;46.21
13209;BME280;6669;42.678;23.332;2022-10-28T12:40:21;95618.25;;;27.16;46.04
13209;BME280;6669;42.678;23.332;2022-10-28T12:42:55;95622.19;;;26.81;45.29
13209;BME280;6669;42.678;23.332;2022-10-28T12:45:34;95615.41;;;26.95;46.15
13209;BME280;6669;42.678;23.332;2022-10-28T12:48:09;95613.78;;;27.21;46.26
13209;BME280;6669;42.678;23.332;2022-10-28T12:50:47;95614.13;;;27.03;46.39
13209;BME280;6669;42.678;23.332;2022-10-28T12:53:23;95616.31;;;27.06;46.69
13209;BME280;6669;42.678;23.332;2022-10-28T12:55:56;95608.31;;;27.06;46.21
13209;BME280;6669;42.678;23.332;2022-10-28T12:58:31;95607.91;;;26.92;47.07
13209;BME280;6669;42.678;23.332;2022-10-28T13:01:05;95616.53;;;27.04;46.04
13209;BME280;6669;42.678;23.332;2022-10-28T13:03:35;95614.31;;;27.23;46.69
13209;BME280;6669;42.678;23.332;2022-10-28T13:06:21;95612.44;;;27.19;46.74
13209;BME280;6669;42.678;23.332;2022-10-28T13:09:16;95608.38;;;26.89;46.89
13209;BME280;6669;42.678;23.332;2022-10-28T13:15:21;95614.41;;;27.34;45.82
13209;BME280;6669;42.678;23.332;2022-10-28T13:18:05;95609.63;;;27.36;46.01
13209;BME280;6669;42.678;23.332;2022-10-28T13:20:44;95605.06;;;27.04;46.17
13209;BME280;6669;42.678;23.332;2022-10-28T13:23:25;95595.25;;;26.60;46.88
13209;BME280;6669;42.678;23.332;2022-10-28T13:26:07;95605.47;;;26.90;47.22
13209;BME280;6669;42.678;23.332;2022-10-28T13:28:43;95605.66;;;27.06;46.07
13209;BME280;6669;42.678;23.332;2022-10-28T13:31:14;95598.38;;;27.01;45.86
13209;BME280;6669;42.678;23.332;2022-10-28T13:33:49;95602.94;;;26.79;46.36
13209;BME280;6669;42.678;23.332;2022-10-28T13:36:19;95599.25;;;26.80;46.27